sensor_id;sensor_type;location;lat;lon;timestamp;pressure;altitude;pressure_sealevel;temperature;humidity
24746;BME280;12845;52.042;6.838;2023-04-30T00:01:31;-18229.59;;;7.49;100.00
24746;BME280;12845;52.042;6.838;2023-04-30T00:03:57;-18227.66;;;7.41;100.00
24746;BME280;12845;52.042;6.838;2023-04-30T00:06:22;-18231.38;;;7.55;100.00
24746;BME280;12845;52.042;6.838;2023-04-30T00:08:47;-18227.94;;;7.42;100.00
24746;BME280;12845;52.042;6.838;2023-04-30T00:11:13;-18227.38;;;7.40;100.00
24746;BME280;12845;52.042;6.838;2023-04-30T00:13:38;-18226.84;;;7.38;100.00
24746;BME280;12845;52.042;6.838;2023-04-30T00:16:04;-18228.06;;;7.43;100.00
24746;BME280;12845;52.042;6.838;2023-04-30T00:18:29;-18228.50;;;7.44;100.00
24746;BME280;12845;52.042;6.838;2023-04-30T00:20:54;-18222.69;;;7.23;100.00
24746;BME280;12845;52.042;6.838;2023-04-30T00:23:20;-18225.47;;;7.33;100.00
24746;BME280;12845;52.042;6.838;2023-04-30T00:25:45;-18220.38;;;7.14;100.00
24746;BME280;12845;52.042;6.838;2023-04-30T00:28:10;-18218.97;;;7.09;100.00
24746;BME280;12845;52.042;6.838;2023-04-30T00:30:36;-18216.22;;;6.99;100.00
24746;BME280;12845;52.042;6.838;2023-04-30T00:33:01;-18216.50;;;7.00;100.00
24746;BME280;12845;52.042;6.838;2023-04-30T00:35:26;-18216.38;;;6.99;100.00
24746;BME280;12845;52.042;6.838;2023-04-30T00:37:52;-18212.50;;;6.85;100.00
24746;BME280;12845;52.042;6.838;2023-04-30T00:40:17;-18213.88;;;6.90;100.00
24746;BME280;12845;52.042;6.838;2023-04-30T00:42:44;-18208.09;;;6.69;100.00
24746;BME280;12845;52.042;6.838;2023-04-30T00:45:09;-18207.81;;;6.68;100.00
24746;BME280;12845;52.042;6.838;2023-04-30T00:47:35;-18206.44;;;6.63;100.00
24746;BME280;12845;52.042;6.838;2023-04-30T00:50:01;-18206.31;;;6.62;100.00
24746;BME280;12845;52.042;6.838;2023-04-30T00:52:27;-18205.34;;;6.59;100.00
24746;BME280;12845;52.042;6.838;2023-04-30T00:54:53;-18199.69;;;6.38;100.00
24746;BME280;12845;52.042;6.838;2023-04-30T00:57:19;-18203.69;;;6.52;100.00
24746;BME280;12845;52.042;6.838;2023-04-30T00:59:45;-18205.06;;;6.58;100.00
24746;BME280;12845;52.042;6.838;2023-04-30T01:02:11;-18201.06;;;6.43;100.00
24746;BME280;12845;52.042;6.838;2023-04-30T01:04:37;-18199.41;;;6.37;100.00
24746;BME280;12845;52.042;6.838;2023-04-30T01:07:03;-18201.06;;;6.43;100.00
24746;BME280;12845;52.042;6.838;2023-04-30T01:09:29;-18215.13;;;6.95;100.00
24746;BME280;12845;52.042;6.838;2023-04-30T01:14:31;-18196.25;;;6.25;100.00
24746;BME280;12845;52.042;6.838;2023-04-30T01:17:31;-18196.50;;;6.26;100.00
24746;BME280;12845;52.042;6.838;2023-04-30T01:19:58;-18198.59;;;6.33;100.00
24746;BME280;12845;52.042;6.838;2023-04-30T01:25:20;-18196.38;;;6.25;100.00
24746;BME280;12845;52.042;6.838;2023-04-30T01:28:08;-18190.72;;;6.04;100.00
24746;BME280;12845;52.042;6.838;2023-04-30T01:30:34;-18192.66;;;6.12;100.00
24746;BME280;12845;52.042;6.838;2023-04-30T01:33:00;-18196.50;;;6.26;100.00
24746;BME280;12845;52.042;6.838;2023-04-30T01:38:33;-18190.72;;;6.04;100.00
24746;BME280;12845;52.042;6.838;2023-04-30T01:41:15;-18185.88;;;5.86;100.00
24746;BME280;12845;52.042;6.838;2023-04-30T01:46:29;-18187.53;;;5.93;100.00
24746;BME280;12845;52.042;6.838;2023-04-30T01:51:40;-18185.19;;;5.84;100.00
24746;BME280;12845;52.042;6.838;2023-04-30T01:54:31;-18188.66;;;5.97;100.00
24746;BME280;12845;52.042;6.838;2023-04-30T01:57:04;-18187.81;;;5.94;100.00
24746;BME280;12845;52.042;6.838;2023-04-30T01:59:32;-18187.53;;;5.93;100.00
24746;BME280;12845;52.042;6.838;2023-04-30T02:01:58;-18185.19;;;5.84;100.00
24746;BME280;12845;52.042;6.838;2023-04-30T02:04:24;-18184.38;;;5.81;100.00
24746;BME280;12845;52.042;6.838;2023-04-30T02:06:49;-18184.91;;;5.83;100.00
24746;BME280;12845;52.042;6.838;2023-04-30T02:09:15;-18176.22;;;5.51;100.00
24746;BME280;12845;52.042;6.838;2023-04-30T02:11:40;-18177.47;;;5.55;100.00
24746;BME280;12845;52.042;6.838;2023-04-30T02:14:06;-18176.91;;;5.53;100.00
24746;BME280;12845;52.042;6.838;2023-04-30T02:16:31;-18178.03;;;5.57;100.00
24746;BME280;12845;52.042;6.838;2023-04-30T02:18:56;-18179.00;;;5.61;100.00
24746;BME280;12845;52.042;6.838;2023-04-30T02:21:22;-18179.13;;;5.61;100.00
24746;BME280;12845;52.042;6.838;2023-04-30T02:23:47;-18178.03;;;5.57;100.00
24746;BME280;12845;52.042;6.838;2023-04-30T02:26:13;-18175.97;;;5.50;100.00
24746;BME280;12845;52.042;6.838;2023-04-30T02:28:38;-18174.56;;;5.45;100.00
24746;BME280;12845;52.042;6.838;2023-04-30T02:31:04;-18170.28;;;5.29;100.00
24746;BME280;12845;52.042;6.838;2023-04-30T02:33:30;-18170.72;;;5.30;100.00
24746;BME280;12845;52.042;6.838;2023-04-30T02:35:55;-18171.53;;;5.33;100.00
24746;BME280;12845;52.042;6.838;2023-04-30T02:38:21;-18179.25;;;5.62;100.00
24746;BME280;12845;52.042;6.838;2023-04-30T02:40:46;-18173.63;;;5.41;100.00
24746;BME280;12845;52.042;6.838;2023-04-30T02:43:11;-18174.56;;;5.45;100.00
24746;BME280;12845;52.042;6.838;2023-04-30T02:45:36;-18173.06;;;5.39;100.00
24746;BME280;12845;52.042;6.838;2023-04-30T02:48:02;-18175.97;;;5.50;100.00
24746;BME280;12845;52.042;6.838;2023-04-30T02:50:27;-18172.91;;;5.38;100.00
24746;BME280;12845;52.042;6.838;2023-04-30T02:52:52;-18170.56;;;5.30;100.00
24746;BME280;12845;52.042;6.838;2023-04-30T02:55:20;-18177.19;;;5.54;100.00
24746;BME280;12845;52.042;6.838;2023-04-30T02:57:45;-18174.72;;;5.45;100.00
24746;BME280;12845;52.042;6.838;2023-04-30T03:00:11;-18169.34;;;5.25;100.00
24746;BME280;12845;52.042;6.838;2023-04-30T03:02:37;-18169.75;;;5.27;100.00
24746;BME280;12845;52.042;6.838;2023-04-30T03:05:02;-18170.28;;;5.29;100.00
24746;BME280;12845;52.042;6.838;2023-04-30T03:07:28;-18170.84;;;5.31;100.00
24746;BME280;12845;52.042;6.838;2023-04-30T03:09:53;-18172.91;;;5.38;100.00
24746;BME280;12845;52.042;6.838;2023-04-30T03:12:18;-18164.50;;;5.07;100.00
24746;BME280;12845;52.042;6.838;2023-04-30T03:14:44;-18164.63;;;5.08;100.00
24746;BME280;12845;52.042;6.838;2023-04-30T03:17:09;-18174.44;;;5.44;100.00
24746;BME280;12845;52.042;6.838;2023-04-30T03:19:34;-18172.22;;;5.36;100.00
24746;BME280;12845;52.042;6.838;2023-04-30T03:22:00;-18164.63;;;5.08;100.00
24746;BME280;12845;52.042;6.838;2023-04-30T03:24:25;-18159.81;;;4.90;100.00
24746;BME280;12845;52.042;6.838;2023-04-30T03:26:50;-18158.56;;;4.85;100.00
24746;BME280;12845;52.042;6.838;2023-04-30T03:29:16;-18159.38;;;4.88;100.00
24746;BME280;12845;52.042;6.838;2023-04-30T03:31:41;-18153.47;;;4.66;100.00
24746;BME280;12845;52.042;6.838;2023-04-30T03:34:07;-18156.22;;;4.77;100.00
24746;BME280;12845;52.042;6.838;2023-04-30T03:36:32;-18156.91;;;4.79;100.00
24746;BME280;12845;52.042;6.838;2023-04-30T03:38:59;-18156.34;;;4.77;100.00
24746;BME280;12845;52.042;6.838;2023-04-30T03:41:24;-18150.56;;;4.56;100.00
24746;BME280;12845;52.042;6.838;2023-04-30T03:43:50;-18148.22;;;4.47;100.00
24746;BME280;12845;52.042;6.838;2023-04-30T03:46:15;-18147.38;;;4.44;100.00
24746;BME280;12845;52.042;6.838;2023-04-30T03:48:40;-18146.81;;;4.42;100.00
24746;BME280;12845;52.042;6.838;2023-04-30T03:51:06;-18147.38;;;4.44;100.00
24746;BME280;12845;52.042;6.838;2023-04-30T03:53:31;-18148.63;;;4.48;100.00
24746;BME280;12845;52.042;6.838;2023-04-30T03:55:57;-18150.13;;;4.54;100.00
24746;BME280;12845;52.042;6.838;2023-04-30T03:58:23;-18149.88;;;4.53;100.00
24746;BME280;12845;52.042;6.838;2023-04-30T04:00:48;-18151.78;;;4.60;100.00
24746;BME280;12845;52.042;6.838;2023-04-30T04:03:14;-18150.56;;;4.56;100.00
24746;BME280;12845;52.042;6.838;2023-04-30T04:05:40;-18152.50;;;4.63;100.00
24746;BME280;12845;52.042;6.838;2023-04-30T04:08:06;-18152.63;;;4.63;100.00
24746;BME280;12845;52.042;6.838;2023-04-30T04:10:33;-18152.06;;;4.61;100.00
24746;BME280;12845;52.042;6.838;2023-04-30T04:12:59;-18152.06;;;4.61;100.00
24746;BME280;12845;52.042;6.838;2023-04-30T04:15:24;-18153.31;;;4.66;100.00
24746;BME280;12845;52.042;6.838;2023-04-30T04:17:50;-18155.66;;;4.74;100.00
24746;BME280;12845;52.042;6.838;2023-04-30T04:20:15;-18156.22;;;4.77;100.00
24746;BME280;12845;52.042;6.838;2023-04-30T04:22:41;-18153.72;;;4.67;100.00
24746;BME280;12845;52.042;6.838;2023-04-30T04:25:07;-18149.59;;;4.52;100.00
24746;BME280;12845;52.042;6.838;2023-04-30T04:27:33;-18151.53;;;4.59;100.00
24746;BME280;12845;52.042;6.838;2023-04-30T04:29:59;-18153.31;;;4.66;100.00
24746;BME280;12845;52.042;6.838;2023-04-30T04:32:24;-18154.00;;;4.68;100.00
24746;BME280;12845;52.042;6.838;2023-04-30T04:34:50;-18152.63;;;4.63;100.00
24746;BME280;12845;52.042;6.838;2023-04-30T04:37:15;-18153.19;;;4.65;100.00
24746;BME280;12845;52.042;6.838;2023-04-30T04:39:41;-18153.03;;;4.65;100.00
24746;BME280;12845;52.042;6.838;2023-04-30T04:42:07;-18158.16;;;4.84;100.00
24746;BME280;12845;52.042;6.838;2023-04-30T04:44:32;-18151.53;;;4.59;100.00
24746;BME280;12845;52.042;6.838;2023-04-30T04:46:57;-18156.50;;;4.78;100.00
24746;BME280;12845;52.042;6.838;2023-04-30T04:49:23;-18152.06;;;4.61;100.00
24746;BME280;12845;52.042;6.838;2023-04-30T04:51:48;-18154.84;;;4.71;100.00
24746;BME280;12845;52.042;6.838;2023-04-30T04:54:14;-18157.47;;;4.81;100.00
24746;BME280;12845;52.042;6.838;2023-04-30T04:56:39;-18159.81;;;4.90;100.00
24746;BME280;12845;52.042;6.838;2023-04-30T04:59:04;-18160.63;;;4.93;100.00
24746;BME280;12845;52.042;6.838;2023-04-30T05:01:30;-18164.22;;;5.06;100.00
24746;BME280;12845;52.042;6.838;2023-04-30T05:03:55;-18165.31;;;5.10;100.00
24746;BME280;12845;52.042;6.838;2023-04-30T05:06:21;-18169.47;;;5.26;100.00
24746;BME280;12845;52.042;6.838;2023-04-30T05:08:46;-18172.38;;;5.36;100.00
24746;BME280;12845;52.042;6.838;2023-04-30T05:11:12;-18175.41;;;5.48;100.00
24746;BME280;12845;52.042;6.838;2023-04-30T05:13:37;-18179.53;;;5.63;100.00
24746;BME280;12845;52.042;6.838;2023-04-30T05:16:03;-18180.50;;;5.66;100.00
24746;BME280;12845;52.042;6.838;2023-04-30T05:18:28;-18183.53;;;5.78;100.00
24746;BME280;12845;52.042;6.838;2023-04-30T05:20:53;-18180.66;;;5.67;100.00
24746;BME280;12845;52.042;6.838;2023-04-30T05:23:19;-18182.16;;;5.73;100.00
24746;BME280;12845;52.042;6.838;2023-04-30T05:25:44;-18181.47;;;5.70;100.00
24746;BME280;12845;52.042;6.838;2023-04-30T05:28:10;-18179.81;;;5.64;100.00
24746;BME280;12845;52.042;6.838;2023-04-30T05:30:36;-18183.53;;;5.78;100.00
24746;BME280;12845;52.042;6.838;2023-04-30T05:33:01;-18184.22;;;5.80;100.00
24746;BME280;12845;52.042;6.838;2023-04-30T05:35:26;-18185.88;;;5.86;100.00
24746;BME280;12845;52.042;6.838;2023-04-30T05:37:52;-18188.50;;;5.96;100.00
24746;BME280;12845;52.042;6.838;2023-04-30T05:40:17;-18190.59;;;6.04;100.00
24746;BME280;12845;52.042;6.838;2023-04-30T05:42:43;-18194.16;;;6.17;100.00
24746;BME280;12845;52.042;6.838;2023-04-30T05:45:12;-18195.13;;;6.21;100.00
24746;BME280;12845;52.042;6.838;2023-04-30T05:47:39;-18197.63;;;6.30;100.00
24746;BME280;12845;52.042;6.838;2023-04-30T05:50:05;-18201.47;;;6.44;100.00
24746;BME280;12845;52.042;6.838;2023-04-30T05:52:31;-18202.16;;;6.47;100.00
24746;BME280;12845;52.042;6.838;2023-04-30T05:54:56;-18204.78;;;6.57;100.00
24746;BME280;12845;52.042;6.838;2023-04-30T05:57:22;-18208.38;;;6.70;100.00
24746;BME280;12845;52.042;6.838;2023-04-30T05:59:47;-18210.84;;;6.79;100.00
24746;BME280;12845;52.042;6.838;2023-04-30T06:02:12;-18213.59;;;6.89;100.00
24746;BME280;12845;52.042;6.838;2023-04-30T06:04:38;-18217.06;;;7.02;100.00
24746;BME280;12845;52.042;6.838;2023-04-30T06:07:03;-18220.50;;;7.15;100.00
24746;BME280;12845;52.042;6.838;2023-04-30T06:09:28;-18225.59;;;7.34;100.00
24746;BME280;12845;52.042;6.838;2023-04-30T06:11:54;-18229.19;;;7.47;100.00
24746;BME280;12845;52.042;6.838;2023-04-30T06:14:20;-18233.59;;;7.63;100.00
24746;BME280;12845;52.042;6.838;2023-04-30T06:16:47;-18234.00;;;7.65;100.00
24746;BME280;12845;52.042;6.838;2023-04-30T06:19:12;-18238.69;;;7.82;100.00
24746;BME280;12845;52.042;6.838;2023-04-30T06:21:37;-18242.94;;;7.98;100.00
24746;BME280;12845;52.042;6.838;2023-04-30T06:24:03;-18246.38;;;8.11;100.00
24746;BME280;12845;52.042;6.838;2023-04-30T06:26:29;-18250.09;;;8.25;100.00
24746;BME280;12845;52.042;6.838;2023-04-30T06:28:54;-18253.56;;;8.38;100.00
24746;BME280;12845;52.042;6.838;2023-04-30T06:31:20;-18254.09;;;8.40;100.00
24746;BME280;12845;52.042;6.838;2023-04-30T06:33:45;-18255.47;;;8.45;100.00
24746;BME280;12845;52.042;6.838;2023-04-30T06:36:11;-18258.25;;;8.55;100.00
24746;BME280;12845;52.042;6.838;2023-04-30T06:38:37;-18261.13;;;8.66;100.00
24746;BME280;12845;52.042;6.838;2023-04-30T06:41:02;-18265.66;;;8.82;100.00
24746;BME280;12845;52.042;6.838;2023-04-30T06:43:28;-18265.66;;;8.82;100.00
24746;BME280;12845;52.042;6.838;2023-04-30T06:45:53;-18267.31;;;8.89;100.00
24746;BME280;12845;52.042;6.838;2023-04-30T06:48:18;-18270.75;;;9.01;100.00
24746;BME280;12845;52.042;6.838;2023-04-30T06:50:44;-18275.16;;;9.18;100.00
24746;BME280;12845;52.042;6.838;2023-04-30T06:53:10;-18276.00;;;9.21;100.00
24746;BME280;12845;52.042;6.838;2023-04-30T06:55:36;-18278.19;;;9.29;100.00
24746;BME280;12845;52.042;6.838;2023-04-30T06:58:01;-18280.94;;;9.39;100.00
24746;BME280;12845;52.042;6.838;2023-04-30T07:00:27;-18282.59;;;9.45;100.00
24746;BME280;12845;52.042;6.838;2023-04-30T07:02:52;-18288.22;;;9.66;100.00
24746;BME280;12845;52.042;6.838;2023-04-30T07:05:17;-18289.47;;;9.71;100.00
24746;BME280;12845;52.042;6.838;2023-04-30T07:07:43;-18291.81;;;9.80;100.00
24746;BME280;12845;52.042;6.838;2023-04-30T07:10:08;-18291.53;;;9.79;100.00
24746;BME280;12845;52.042;6.838;2023-04-30T07:12:34;-18292.06;;;9.81;100.00
24746;BME280;12845;52.042;6.838;2023-04-30T07:15:02;-18297.72;;;10.02;100.00
24746;BME280;12845;52.042;6.838;2023-04-30T07:17:28;-18302.53;;;10.20;100.00
24746;BME280;12845;52.042;6.838;2023-04-30T07:19:53;-18301.56;;;10.16;100.00
24746;BME280;12845;52.042;6.838;2023-04-30T07:22:19;-18299.50;;;10.08;100.00
24746;BME280;12845;52.042;6.838;2023-04-30T07:24:44;-18304.31;;;10.26;100.00
24746;BME280;12845;52.042;6.838;2023-04-30T07:27:10;-18306.38;;;10.34;100.00
24746;BME280;12845;52.042;6.838;2023-04-30T07:29:35;-18311.47;;;10.53;100.00
24746;BME280;12845;52.042;6.838;2023-04-30T07:32:01;-18314.34;;;10.64;100.00
24746;BME280;12845;52.042;6.838;2023-04-30T07:34:27;-18316.28;;;10.71;100.00
24746;BME280;12845;52.042;6.838;2023-04-30T07:36:52;-18314.34;;;10.64;100.00
24746;BME280;12845;52.042;6.838;2023-04-30T07:39:18;-18314.63;;;10.65;100.00
24746;BME280;12845;52.042;6.838;2023-04-30T07:41:43;-18317.09;;;10.74;100.00
24746;BME280;12845;52.042;6.838;2023-04-30T07:44:09;-18319.56;;;10.83;100.00
24746;BME280;12845;52.042;6.838;2023-04-30T07:46:35;-18327.81;;;11.14;100.00
24746;BME280;12845;52.042;6.838;2023-04-30T07:49:01;-18326.44;;;11.09;100.00
24746;BME280;12845;52.042;6.838;2023-04-30T07:51:26;-18326.56;;;11.09;100.00
24746;BME280;12845;52.042;6.838;2023-04-30T07:53:52;-18325.59;;;11.05;100.00
24746;BME280;12845;52.042;6.838;2023-04-30T07:56:17;-18328.34;;;11.16;100.00
24746;BME280;12845;52.042;6.838;2023-04-30T07:58:43;-18332.75;;;11.32;100.00
24746;BME280;12845;52.042;6.838;2023-04-30T08:01:08;-18332.63;;;11.32;100.00
24746;BME280;12845;52.042;6.838;2023-04-30T08:03:33;-18329.72;;;11.21;100.00
24746;BME280;12845;52.042;6.838;2023-04-30T08:05:59;-18329.47;;;11.20;100.00
24746;BME280;12845;52.042;6.838;2023-04-30T08:08:27;-18334.25;;;11.38;100.00
24746;BME280;12845;52.042;6.838;2023-04-30T08:10:53;-18339.06;;;11.56;100.00
24746;BME280;12845;52.042;6.838;2023-04-30T08:13:18;-18338.25;;;11.52;100.00
24746;BME280;12845;52.042;6.838;2023-04-30T08:15:44;-18338.50;;;11.53;100.00
24746;BME280;12845;52.042;6.838;2023-04-30T08:18:10;-18338.38;;;11.53;100.00
24746;BME280;12845;52.042;6.838;2023-04-30T08:20:35;-18342.91;;;11.70;100.00
24746;BME280;12845;52.042;6.838;2023-04-30T08:23:01;-18351.16;;;12.01;100.00
24746;BME280;12845;52.042;6.838;2023-04-30T08:25:26;-18351.97;;;12.04;100.00
24746;BME280;12845;52.042;6.838;2023-04-30T08:27:51;-18353.06;;;12.08;100.00
24746;BME280;12845;52.042;6.838;2023-04-30T08:30:17;-18354.31;;;12.12;100.00
24746;BME280;12845;52.042;6.838;2023-04-30T08:32:42;-18357.03;;;12.23;100.00
24746;BME280;12845;52.042;6.838;2023-04-30T08:35:08;-18359.78;;;12.33;100.00
24746;BME280;12845;52.042;6.838;2023-04-30T08:37:33;-18362.94;;;12.45;100.00
24746;BME280;12845;52.042;6.838;2023-04-30T08:39:59;-18364.31;;;12.50;100.00
24746;BME280;12845;52.042;6.838;2023-04-30T08:42:30;-18367.34;;;12.61;100.00
24746;BME280;12845;52.042;6.838;2023-04-30T08:44:55;-18372.28;;;12.79;100.00
24746;BME280;12845;52.042;6.838;2023-04-30T08:47:23;-18373.63;;;12.84;100.00
24746;BME280;12845;52.042;6.838;2023-04-30T08:49:48;-18372.97;;;12.82;100.00
24746;BME280;12845;52.042;6.838;2023-04-30T08:52:14;-18374.19;;;12.86;100.00
24746;BME280;12845;52.042;6.838;2023-04-30T08:54:40;-18365.28;;;12.53;100.00
24746;BME280;12845;52.042;6.838;2023-04-30T08:57:06;-18366.50;;;12.58;100.00
24746;BME280;12845;52.042;6.838;2023-04-30T08:59:32;-18366.91;;;12.59;100.00
24746;BME280;12845;52.042;6.838;2023-04-30T09:01:59;-18370.34;;;12.72;100.00
24746;BME280;12845;52.042;6.838;2023-04-30T09:04:24;-18371.72;;;12.77;100.00
24746;BME280;12845;52.042;6.838;2023-04-30T09:06:52;-18377.63;;;12.99;100.00
24746;BME280;12845;52.042;6.838;2023-04-30T09:09:27;-18386.94;;;13.34;100.00
24746;BME280;12845;52.042;6.838;2023-04-30T09:11:52;-18385.72;;;13.29;100.00
24746;BME280;12845;52.042;6.838;2023-04-30T09:14:34;-18393.53;;;13.59;100.00
24746;BME280;12845;52.042;6.838;2023-04-30T09:17:05;-18393.53;;;13.59;100.00
24746;BME280;12845;52.042;6.838;2023-04-30T09:19:30;-18392.00;;;13.53;100.00
24746;BME280;12845;52.042;6.838;2023-04-30T09:21:56;-18394.22;;;13.61;100.00
24746;BME280;12845;52.042;6.838;2023-04-30T09:24:22;-18392.28;;;13.54;100.00
24746;BME280;12845;52.042;6.838;2023-04-30T09:26:49;-18394.91;;;13.64;100.00
24746;BME280;12845;52.042;6.838;2023-04-30T09:29:15;-18397.34;;;13.73;100.00
24746;BME280;12845;52.042;6.838;2023-04-30T09:31:45;-18401.59;;;13.89;100.00
24746;BME280;12845;52.042;6.838;2023-04-30T09:34:12;-18402.69;;;13.93;100.00
24746;BME280;12845;52.042;6.838;2023-04-30T09:36:51;-18410.22;;;14.21;100.00
24746;BME280;12845;52.042;6.838;2023-04-30T09:39:19;-18407.22;;;14.10;100.00
24746;BME280;12845;52.042;6.838;2023-04-30T09:41:44;-18412.28;;;14.29;100.00
24746;BME280;12845;52.042;6.838;2023-04-30T09:44:29;-18411.19;;;14.25;100.00
24746;BME280;12845;52.042;6.838;2023-04-30T09:46:55;-18414.19;;;14.36;100.00
24746;BME280;12845;52.042;6.838;2023-04-30T09:49:21;-18415.16;;;14.39;100.00
24746;BME280;12845;52.042;6.838;2023-04-30T09:51:59;-18425.16;;;14.77;100.00
24746;BME280;12845;52.042;6.838;2023-04-30T09:54:28;-18415.84;;;14.42;100.00
24746;BME280;12845;52.042;6.838;2023-04-30T09:56:54;-18412.69;;;14.30;100.00
24746;BME280;12845;52.042;6.838;2023-04-30T09:59:27;-18415.44;;;14.40;100.00
24746;BME280;12845;52.042;6.838;2023-04-30T10:01:57;-18416.38;;;14.44;100.00
24746;BME280;12845;52.042;6.838;2023-04-30T10:04:23;-18410.50;;;14.22;100.00
24746;BME280;12845;52.042;6.838;2023-04-30T10:06:51;-18423.50;;;14.71;100.00
24746;BME280;12845;52.042;6.838;2023-04-30T10:09:17;-18431.19;;;14.99;100.00
24746;BME280;12845;52.042;6.838;2023-04-30T10:11:44;-18437.19;;;15.22;100.00
24746;BME280;12845;52.042;6.838;2023-04-30T10:14:12;-18439.25;;;15.29;100.00
24746;BME280;12845;52.042;6.838;2023-04-30T10:16:57;-18437.19;;;15.22;100.00
24746;BME280;12845;52.042;6.838;2023-04-30T10:19:24;-18440.75;;;15.35;100.00
24746;BME280;12845;52.042;6.838;2023-04-30T10:21:51;-18439.66;;;15.31;100.00
24746;BME280;12845;52.042;6.838;2023-04-30T10:24:18;-18437.19;;;15.22;100.00
24746;BME280;12845;52.042;6.838;2023-04-30T10:26:45;-18434.72;;;15.12;100.00
24746;BME280;12845;52.042;6.838;2023-04-30T10:29:15;-18434.19;;;15.10;100.00
24746;BME280;12845;52.042;6.838;2023-04-30T10:31:46;-18431.44;;;15.00;100.00
24746;BME280;12845;52.042;6.838;2023-04-30T10:34:14;-18430.34;;;14.96;100.00
24746;BME280;12845;52.042;6.838;2023-04-30T10:36:44;-18433.50;;;15.08;100.00
24746;BME280;12845;52.042;6.838;2023-04-30T10:39:13;-18435.84;;;15.17;100.00
24746;BME280;12845;52.042;6.838;2023-04-30T10:41:39;-18441.16;;;15.37;100.00
24746;BME280;12845;52.042;6.838;2023-04-30T10:44:08;-18444.59;;;15.49;100.00
24746;BME280;12845;52.042;6.838;2023-04-30T10:46:34;-18441.03;;;15.36;100.00
24746;BME280;12845;52.042;6.838;2023-04-30T10:49:01;-18440.63;;;15.34;100.00
24746;BME280;12845;52.042;6.838;2023-04-30T10:51:47;-18445.53;;;15.53;100.00
24746;BME280;12845;52.042;6.838;2023-04-30T10:54:23;-18446.50;;;15.56;100.00
24746;BME280;12845;52.042;6.838;2023-04-30T10:56:50;-18451.16;;;15.74;100.00
24746;BME280;12845;52.042;6.838;2023-04-30T10:59:16;-18458.00;;;15.99;100.00
24746;BME280;12845;52.042;6.838;2023-04-30T11:01:55;-18456.63;;;15.94;100.00
24746;BME280;12845;52.042;6.838;2023-04-30T11:04:22;-18455.66;;;15.91;100.00
24746;BME280;12845;52.042;6.838;2023-04-30T11:06:48;-18460.31;;;16.08;100.00
24746;BME280;12845;52.042;6.838;2023-04-30T11:09:15;-18463.47;;;16.20;100.00
24746;BME280;12845;52.042;6.838;2023-04-30T11:11:43;-18467.81;;;16.36;100.00
24746;BME280;12845;52.042;6.838;2023-04-30T11:14:10;-18466.06;;;16.30;100.00
24746;BME280;12845;52.042;6.838;2023-04-30T11:16:36;-18471.78;;;16.51;100.00
24746;BME280;12845;52.042;6.838;2023-04-30T11:19:13;-18476.84;;;16.70;100.00
24746;BME280;12845;52.042;6.838;2023-04-30T11:25:09;-18474.78;;;16.62;100.00
24746;BME280;12845;52.042;6.838;2023-04-30T11:27:35;-18470.56;;;16.46;100.00
24746;BME280;12845;52.042;6.838;2023-04-30T11:30:03;-18470.97;;;16.48;100.00
24746;BME280;12845;52.042;6.838;2023-04-30T11:32:34;-18477.41;;;16.72;100.00
24746;BME280;12845;52.042;6.838;2023-04-30T11:35:01;-18481.75;;;16.88;100.00
24746;BME280;12845;52.042;6.838;2023-04-30T11:39:56;-18486.00;;;17.04;100.00
24746;BME280;12845;52.042;6.838;2023-04-30T11:42:23;-18489.00;;;17.16;100.00
24746;BME280;12845;52.042;6.838;2023-04-30T11:44:48;-18488.47;;;17.13;100.00
24746;BME280;12845;52.042;6.838;2023-04-30T11:47:14;-18491.47;;;17.25;100.00
24746;BME280;12845;52.042;6.838;2023-04-30T11:49:40;-18490.78;;;17.22;100.00
24746;BME280;12845;52.042;6.838;2023-04-30T11:52:06;-18498.16;;;17.50;100.00
24746;BME280;12845;52.042;6.838;2023-04-30T11:54:35;-18502.94;;;17.68;100.00
24746;BME280;12845;52.042;6.838;2023-04-30T11:57:02;-18501.16;;;17.61;100.00
24746;BME280;12845;52.042;6.838;2023-04-30T11:59:28;-18499.50;;;17.55;100.00
24746;BME280;12845;52.042;6.838;2023-04-30T12:01:53;-18501.16;;;17.61;100.00
24746;BME280;12845;52.042;6.838;2023-04-30T12:04:19;-18504.44;;;17.73;100.00
24746;BME280;12845;52.042;6.838;2023-04-30T12:06:45;-18509.22;;;17.91;100.00
24746;BME280;12845;52.042;6.838;2023-04-30T12:09:10;-18516.16;;;18.17;100.00
24746;BME280;12845;52.042;6.838;2023-04-30T12:11:37;-18506.47;;;17.81;100.00
24746;BME280;12845;52.042;6.838;2023-04-30T12:14:06;-18496.78;;;17.45;100.00
24746;BME280;12845;52.042;6.838;2023-04-30T12:16:45;-18498.84;;;17.52;100.00
24746;BME280;12845;52.042;6.838;2023-04-30T12:19:23;-18510.72;;;17.97;100.00
24746;BME280;12845;52.042;6.838;2023-04-30T12:21:49;-18516.97;;;18.20;100.00
24746;BME280;12845;52.042;6.838;2023-04-30T12:24:16;-18523.53;;;18.45;100.00
24746;BME280;12845;52.042;6.838;2023-04-30T12:26:42;-18525.31;;;18.52;100.00
24746;BME280;12845;52.042;6.838;2023-04-30T12:29:09;-18528.31;;;18.63;100.00
24746;BME280;12845;52.042;6.838;2023-04-30T12:31:36;-18533.06;;;18.81;100.00
24746;BME280;12845;52.042;6.838;2023-04-30T12:34:06;-18532.25;;;18.78;100.00
24746;BME280;12845;52.042;6.838;2023-04-30T12:36:32;-18535.66;;;18.90;100.00
24746;BME280;12845;52.042;6.838;2023-04-30T12:39:10;-18539.06;;;19.03;100.00
24746;BME280;12845;52.042;6.838;2023-04-30T12:41:45;-18543.03;;;19.18;100.00
24746;BME280;12845;52.042;6.838;2023-04-30T12:44:22;-18543.44;;;19.20;98.30
24746;BME280;12845;52.042;6.838;2023-04-30T12:46:50;-18542.88;;;19.17;100.00
24746;BME280;12845;52.042;6.838;2023-04-30T12:49:32;-18533.91;;;18.84;96.28
24746;BME280;12845;52.042;6.838;2023-04-30T12:52:07;-18536.34;;;18.93;100.00
24746;BME280;12845;52.042;6.838;2023-04-30T12:54:35;-18546.72;;;19.32;100.00
24746;BME280;12845;52.042;6.838;2023-04-30T12:57:02;-18549.84;;;19.44;100.00
24746;BME280;12845;52.042;6.838;2023-04-30T12:59:30;-18543.97;;;19.22;100.00
24746;BME280;12845;52.042;6.838;2023-04-30T13:02:10;-18544.38;;;19.23;100.00
24746;BME280;12845;52.042;6.838;2023-04-30T13:04:37;-18550.25;;;19.45;100.00